createdAt,value
2019-05-15T00:01:49.544Z,12.37
2019-05-15T00:04:20.352Z,14.05
2019-05-15T00:06:51.233Z,13.10
2019-05-15T00:09:22.066Z,13.55
2019-05-15T00:11:52.994Z,12.10
2019-05-15T00:14:23.861Z,13.28
2019-05-15T00:16:54.858Z,11.33
2019-05-15T00:19:28.317Z,12.05
2019-05-15T00:21:58.664Z,12.65
2019-05-15T00:24:29.635Z,11.18
2019-05-15T00:27:00.184Z,12.55
2019-05-15T00:29:30.913Z,10.72
2019-05-15T00:32:01.650Z,11.53
2019-05-15T00:34:32.395Z,11.35
2019-05-15T00:37:02.957Z,12.05
2019-05-15T00:39:33.746Z,12.20
2019-05-15T00:42:04.427Z,12.88
2019-05-15T00:44:35.522Z,10.20
2019-05-15T00:47:10.203Z,12.05
2019-05-15T00:49:38.814Z,11.08
2019-05-15T00:52:12.151Z,12.33
2019-05-15T00:54:42.732Z,10.23
2019-05-15T00:57:13.542Z,9.13
2019-05-15T00:59:44.587Z,10.18
2019-05-15T01:02:15.335Z,8.60
2019-05-15T01:04:47.996Z,8.35
2019-05-15T01:07:18.913Z,10.68
2019-05-15T01:09:49.816Z,9.05
2019-05-15T01:12:20.520Z,8.90
2019-05-15T01:14:51.388Z,9.78
2019-05-15T01:17:22.134Z,12.73
2019-05-15T01:19:52.921Z,8.80
2019-05-15T01:22:23.676Z,8.15
2019-05-15T01:24:55.468Z,9.20
2019-05-15T01:27:29.006Z,9.90
2019-05-15T01:29:58.929Z,9.10
2019-05-15T01:32:29.745Z,8.75
2019-05-15T01:35:00.627Z,8.98
2019-05-15T01:37:31.466Z,7.17
2019-05-15T01:40:02.325Z,7.75
2019-05-15T01:42:33.132Z,9.05
2019-05-15T01:45:03.765Z,7.03
2019-05-15T01:47:34.727Z,6.05
2019-05-15T01:50:05.663Z,8.40
2019-05-15T01:52:38.680Z,8.80
2019-05-15T01:55:09.514Z,8.53
2019-05-15T01:57:40.286Z,8.53
2019-05-15T02:00:11.224Z,8.15
2019-05-15T02:02:43.026Z,7.15
2019-05-15T02:05:13.777Z,8.08
2019-05-15T02:07:44.452Z,7.15
2019-05-15T02:10:15.248Z,8.38
2019-05-15T02:12:47.987Z,7.30
2019-05-15T02:15:19.011Z,7.05
2019-05-15T02:17:49.863Z,8.83
2019-05-15T02:20:20.582Z,7.05
2019-05-15T02:22:51.730Z,8.10
2019-05-15T02:25:22.607Z,6.60
2019-05-15T02:27:53.418Z,7.60
2019-05-15T02:30:28.941Z,8.25
2019-05-15T02:32:58.972Z,6.12
2019-05-15T02:35:29.784Z,6.00
2019-05-15T02:38:00.556Z,6.22
2019-05-15T02:40:31.208Z,6.35
2019-05-15T02:43:01.937Z,5.60
2019-05-15T02:45:36.428Z,6.58
2019-05-15T02:48:08.617Z,6.00
2019-05-15T02:50:39.092Z,7.15
2019-05-15T02:53:10.981Z,7.12
2019-05-15T02:55:41.734Z,8.30
2019-05-15T02:58:12.635Z,6.60
2019-05-15T03:00:48.339Z,6.97
2019-05-15T03:03:16.053Z,7.65
2019-05-15T03:05:49.635Z,6.35
2019-05-15T03:08:19.915Z,5.87
2019-05-15T03:10:50.660Z,6.40
2019-05-15T03:13:21.560Z,6.40
2019-05-15T03:15:52.424Z,7.05
2019-05-15T03:18:23.673Z,5.35
2019-05-15T03:20:54.591Z,6.55
2019-05-15T03:23:29.161Z,8.43
2019-05-15T03:26:03.011Z,6.22
2019-05-15T03:28:31.841Z,5.42
2019-05-15T03:31:20.832Z,5.95
2019-05-15T03:33:43.838Z,6.05
2019-05-15T03:36:13.181Z,6.33
2019-05-15T03:38:41.936Z,6.17
2019-05-15T03:41:13.113Z,5.65
2019-05-15T03:43:44.436Z,6.15
2019-05-15T03:46:15.630Z,7.92
2019-05-15T03:48:48.777Z,6.33
2019-05-15T03:51:19.945Z,6.65
2019-05-15T03:53:51.339Z,5.55
2019-05-15T03:56:22.319Z,4.47
2019-05-15T03:58:53.252Z,6.53
2019-05-15T04:01:34.113Z,5.10
2019-05-15T04:03:59.612Z,5.55
2019-05-15T04:06:29.996Z,5.28
2019-05-15T04:09:00.718Z,6.15
2019-05-15T04:11:31.625Z,5.00
2019-05-15T04:14:02.519Z,5.17
2019-05-15T04:16:33.431Z,5.87
2019-05-15T04:19:04.449Z,5.28
2019-05-15T04:21:35.315Z,6.67
2019-05-15T04:24:09.260Z,4.83
2019-05-15T04:26:39.482Z,4.95
2019-05-15T04:29:10.488Z,4.40
2019-05-15T04:31:58.969Z,7.08
2019-05-15T04:34:13.911Z,5.55
2019-05-15T04:36:45.012Z,4.83
2019-05-15T04:39:19.085Z,4.50
2019-05-15T04:41:50.099Z,5.08
2019-05-15T04:44:21.131Z,5.50
2019-05-15T04:46:52.034Z,5.25
2019-05-15T04:49:22.874Z,4.95
2019-05-15T04:51:59.293Z,4.90
2019-05-15T04:54:28.826Z,6.58
2019-05-15T04:56:59.655Z,5.25
2019-05-15T04:59:31.051Z,4.42
2019-05-15T05:02:16.350Z,4.70
2019-05-15T05:04:34.351Z,5.60
2019-05-15T05:07:05.035Z,4.45
2019-05-15T05:09:38.771Z,4.37
2019-05-15T05:12:08.616Z,6.47
2019-05-15T05:14:39.662Z,5.90
2019-05-15T05:17:10.937Z,6.58
2019-05-15T05:19:41.760Z,8.35
2019-05-15T05:22:12.413Z,4.95
2019-05-15T05:24:43.308Z,4.17
2019-05-15T05:27:14.207Z,5.12
2019-05-15T05:29:44.906Z,5.03
2019-05-15T05:32:28.836Z,6.28
2019-05-15T05:34:48.378Z,7.53
2019-05-15T05:37:19.049Z,8.78
2019-05-15T05:39:50.077Z,8.88
2019-05-15T05:42:20.946Z,9.25
2019-05-15T05:44:51.562Z,10.38
2019-05-15T05:47:22.302Z,11.25
2019-05-15T05:49:53.578Z,10.98
2019-05-15T05:52:24.489Z,10.35
2019-05-15T05:54:55.426Z,15.90
2019-05-15T05:57:27.953Z,10.90
2019-05-15T05:59:59.075Z,8.45
2019-05-15T06:02:43.847Z,10.65
2019-05-15T06:05:02.949Z,7.53
2019-05-15T06:07:35.483Z,9.90
2019-05-15T06:10:08.894Z,10.88
2019-05-15T06:12:40.330Z,10.82
2019-05-15T06:15:11.129Z,11.73
2019-05-15T06:17:41.813Z,10.28
2019-05-15T06:20:14.150Z,9.70
2019-05-15T06:22:44.911Z,8.18
2019-05-15T06:25:19.497Z,9.18
2019-05-15T06:27:48.513Z,8.10
2019-05-15T06:30:26.530Z,10.08
2019-05-15T06:33:04.591Z,10.38
2019-05-15T06:35:24.914Z,11.20
2019-05-15T06:37:56.177Z,11.38
2019-05-15T06:40:28.958Z,12.63
2019-05-15T06:43:00.060Z,12.60
2019-05-15T06:45:31.418Z,9.08
2019-05-15T06:48:02.387Z,9.85
2019-05-15T06:50:40.362Z,8.00
2019-05-15T06:53:11.512Z,5.55
2019-05-15T06:55:42.464Z,6.92
2019-05-15T06:58:13.517Z,8.00
2019-05-15T07:00:44.526Z,6.20
2019-05-15T07:03:23.954Z,5.78
2019-05-15T07:05:50.711Z,4.50
2019-05-15T07:08:20.652Z,4.50
2019-05-15T07:10:51.667Z,5.83
2019-05-15T07:13:22.742Z,7.28
2019-05-15T07:15:53.656Z,3.25
2019-05-15T07:18:24.416Z,3.98
2019-05-15T07:20:57.929Z,4.20
2019-05-15T07:23:30.558Z,3.37
2019-05-15T07:26:00.762Z,3.30
2019-05-15T07:28:31.919Z,4.20
2019-05-15T07:31:02.762Z,4.33
2019-05-15T07:33:39.629Z,3.55
2019-05-15T07:36:08.368Z,4.17
2019-05-15T07:38:39.344Z,5.78
2019-05-15T07:41:10.673Z,5.40
2019-05-15T07:43:41.843Z,4.33
2019-05-15T07:46:12.818Z,3.45
2019-05-15T07:48:44.096Z,3.25
2019-05-15T07:51:17.828Z,3.20
2019-05-15T07:53:48.939Z,5.33
2019-05-15T07:56:20.088Z,3.17
2019-05-15T07:58:52.864Z,3.42
2019-05-15T08:01:23.860Z,4.05
2019-05-15T08:04:01.787Z,7.03
2019-05-15T08:06:28.961Z,4.35
2019-05-15T08:09:00.198Z,3.83
2019-05-15T08:11:31.227Z,2.98
2019-05-15T08:14:03.726Z,4.15
2019-05-15T08:16:35.679Z,2.95
2019-05-15T08:19:08.572Z,3.22
2019-05-15T08:21:39.706Z,2.47
2019-05-15T08:24:10.494Z,4.10
2019-05-15T08:26:45.289Z,3.05
2019-05-15T08:29:13.850Z,2.65
2019-05-15T08:31:44.912Z,3.02
2019-05-15T08:34:16.473Z,2.77
2019-05-15T08:36:48.447Z,2.83
2019-05-15T08:39:19.481Z,1.80
2019-05-15T08:41:50.365Z,2.33
2019-05-15T08:44:21.226Z,2.55
2019-05-15T08:46:52.057Z,2.52
2019-05-15T08:49:22.894Z,2.80
2019-05-15T08:51:53.704Z,2.12
2019-05-15T08:54:24.388Z,2.20
2019-05-15T08:56:55.504Z,2.17
2019-05-15T08:59:29.275Z,2.55
2019-05-15T09:01:59.018Z,2.00
2019-05-15T09:04:34.501Z,2.70
2019-05-15T09:07:02.463Z,1.40
2019-05-15T09:09:33.480Z,1.80
2019-05-15T09:12:04.628Z,2.05
2019-05-15T09:14:35.271Z,1.77
2019-05-15T09:17:08.523Z,2.15
2019-05-15T09:19:38.928Z,1.60
2019-05-15T09:22:10.403Z,1.27
2019-05-15T09:24:41.350Z,1.72
2019-05-15T09:27:12.252Z,1.85
2019-05-15T09:29:43.250Z,1.30
2019-05-15T09:32:14.186Z,1.30
2019-05-15T09:34:53.938Z,1.92
2019-05-15T09:37:18.137Z,2.10
2019-05-15T09:39:49.169Z,1.95
2019-05-15T09:42:20.185Z,1.75
2019-05-15T09:44:51.110Z,1.50
2019-05-15T09:47:22.557Z,1.52
2019-05-15T09:49:53.756Z,1.85
2019-05-15T09:52:24.602Z,2.00
2019-05-15T09:54:55.563Z,1.60
2019-05-15T09:57:26.464Z,1.50
2019-05-15T09:59:58.648Z,1.40
2019-05-15T10:02:30.310Z,1.40
2019-05-15T10:05:06.342Z,2.10
2019-05-15T10:07:34.254Z,1.40
2019-05-15T10:10:05.617Z,1.67
2019-05-15T10:12:38.635Z,1.65
2019-05-15T10:15:11.283Z,1.82
2019-05-15T10:17:41.662Z,1.90
2019-05-15T10:20:12.363Z,2.37
2019-05-15T10:22:43.046Z,2.02
2019-05-15T10:25:14.079Z,1.40
2019-05-15T10:27:44.712Z,1.25
2019-05-15T10:30:15.325Z,1.15
2019-05-15T10:32:48.489Z,2.08
2019-05-15T10:35:25.770Z,1.55
2019-05-15T10:37:50.721Z,1.82
2019-05-15T10:40:21.236Z,2.17
2019-05-15T10:42:51.933Z,2.62
2019-05-15T10:45:22.910Z,3.85
2019-05-15T10:47:53.436Z,4.08
2019-05-15T10:50:24.370Z,5.05
2019-05-15T10:52:55.336Z,2.60
2019-05-15T10:55:26.153Z,1.52
2019-05-15T10:57:56.991Z,2.47
2019-05-15T11:00:28.629Z,1.90
2019-05-15T11:02:59.499Z,1.77
2019-05-15T11:05:40.661Z,2.62
2019-05-15T11:08:03.026Z,1.52
2019-05-15T11:10:33.668Z,2.37
2019-05-15T11:13:04.479Z,3.95
2019-05-15T11:15:35.249Z,3.27
2019-05-15T11:18:06.127Z,1.82
2019-05-15T11:20:40.962Z,2.45
2019-05-15T11:23:19.495Z,4.83
2019-05-15T11:25:48.930Z,2.98
2019-05-15T11:28:19.926Z,1.50
2019-05-15T11:30:51.020Z,1.98
2019-05-15T11:33:21.830Z,6.08
2019-05-15T11:36:00.417Z,3.55
2019-05-15T11:38:25.271Z,4.33
2019-05-15T11:40:56.038Z,3.25
2019-05-15T11:43:29.125Z,3.12
2019-05-15T11:45:59.511Z,3.17
2019-05-15T11:48:30.255Z,2.08
2019-05-15T11:51:01.116Z,1.72
2019-05-15T11:53:32.253Z,2.65
2019-05-15T11:56:03.222Z,2.33
2019-05-15T11:58:34.307Z,3.12
2019-05-15T12:01:05.195Z,2.90
2019-05-15T12:03:38.520Z,2.37
2019-05-15T12:06:18.005Z,3.98
2019-05-15T12:08:41.523Z,2.33
2019-05-15T12:11:28.652Z,2.10
2019-05-15T12:13:45.273Z,3.55
2019-05-15T12:16:16.233Z,3.85
2019-05-15T12:18:48.317Z,2.52
2019-05-15T12:23:51.814Z,2.08
2019-05-15T12:26:22.725Z,3.62
2019-05-15T12:28:53.859Z,2.87
2019-05-15T12:31:24.884Z,2.58
2019-05-15T12:33:58.186Z,2.58
2019-05-15T12:36:50.174Z,1.47
2019-05-15T12:39:09.485Z,1.62
2019-05-15T13:01:55.827Z,3.83
2019-05-15T13:04:28.458Z,2.87
2019-05-15T13:07:13.058Z,2.70
2019-05-15T13:09:32.164Z,3.12
2019-05-15T13:12:02.871Z,2.95
2019-05-15T13:14:33.688Z,3.30
2019-05-15T13:17:04.903Z,2.12
2019-05-15T13:19:38.606Z,3.00
2019-05-15T13:22:17.557Z,1.98
2019-05-15T13:24:41.022Z,1.45
2019-05-15T13:27:12.011Z,1.75
2019-05-15T13:29:42.821Z,2.40
2019-05-15T13:32:13.876Z,1.72
2019-05-15T13:34:44.520Z,2.50
2019-05-15T13:37:26.330Z,2.30
2019-05-15T13:39:48.602Z,2.87
2019-05-15T13:42:19.391Z,3.30
2019-05-15T13:44:50.415Z,3.37
2019-05-15T13:47:21.143Z,3.42
2019-05-15T13:49:52.066Z,2.02
2019-05-15T13:52:23.034Z,3.72
2019-05-15T13:54:53.841Z,1.90
2019-05-15T13:57:25.192Z,2.17
2019-05-15T13:59:58.770Z,3.35
2019-05-15T14:02:28.701Z,3.77
2019-05-15T14:04:59.841Z,1.85
2019-05-15T14:07:44.955Z,1.80
2019-05-15T14:10:03.802Z,1.80
2019-05-15T14:12:35.190Z,2.72
2019-05-15T14:15:08.818Z,2.62
2019-05-15T14:17:39.074Z,1.98
2019-05-15T14:20:10.227Z,3.00
2019-05-15T14:22:41.068Z,1.67
2019-05-15T14:25:12.126Z,3.58
2019-05-15T14:27:43.370Z,1.20
2019-05-15T14:30:14.569Z,2.15
2019-05-15T14:32:48.265Z,2.37
2019-05-15T14:35:18.159Z,2.17
2019-05-15T14:38:02.545Z,1.87
2019-05-15T14:40:21.523Z,1.42
2019-05-15T14:42:52.354Z,1.50
2019-05-15T14:45:23.562Z,1.20
2019-05-15T14:47:54.359Z,3.00
2019-05-15T14:50:25.188Z,1.12
2019-05-15T14:52:58.409Z,2.47
2019-05-15T14:55:33.309Z,2.40
2019-05-15T14:58:01.474Z,1.57
2019-05-15T15:00:34.913Z,4.50
2019-05-15T15:03:09.242Z,3.10
2019-05-15T15:05:39.361Z,6.85
2019-05-15T15:08:21.558Z,4.62
2019-05-15T15:10:43.045Z,7.58
2019-05-15T15:13:15.557Z,4.92
2019-05-15T15:15:48.488Z,4.90
2019-05-15T15:18:19.270Z,4.72
2019-05-15T15:20:50.126Z,6.83
2019-05-15T15:23:20.952Z,3.95
2019-05-15T15:25:51.984Z,7.00
2019-05-15T15:28:23.212Z,7.40
2019-05-15T15:30:54.887Z,6.33
2019-05-15T15:33:28.644Z,6.40
2019-05-15T15:35:58.648Z,3.65
2019-05-15T15:38:40.244Z,9.43
2019-05-15T15:41:02.828Z,6.60
2019-05-15T15:43:33.824Z,2.47
2019-05-15T15:46:04.499Z,6.60
2019-05-15T15:48:35.244Z,12.03
2019-05-15T15:51:05.851Z,4.08
2019-05-15T15:53:38.905Z,5.40
2019-05-15T15:56:10.629Z,3.47
2019-05-15T15:58:41.495Z,2.67
2019-05-15T16:01:12.253Z,3.60
2019-05-15T16:03:42.928Z,5.42
2019-05-15T16:06:13.531Z,4.62
2019-05-15T16:08:52.981Z,4.72
2019-05-15T16:11:18.790Z,3.45
2019-05-15T16:13:50.003Z,6.22
2019-05-15T16:16:20.933Z,5.33
2019-05-15T16:18:51.764Z,4.67
2019-05-15T16:21:22.963Z,5.37
2019-05-15T16:23:53.758Z,8.98
2019-05-15T16:26:24.858Z,11.70
2019-05-15T16:28:58.008Z,7.50
2019-05-15T16:31:28.267Z,11.18
2019-05-15T16:33:58.985Z,16.82
2019-05-15T16:36:29.947Z,7.17
2019-05-15T16:39:07.756Z,9.88
2019-05-15T16:41:33.174Z,11.10
2019-05-15T16:44:03.943Z,14.18
2019-05-15T16:46:34.924Z,7.65
2019-05-15T16:49:05.635Z,7.75
2019-05-15T16:51:38.346Z,5.20
2019-05-15T16:54:08.956Z,5.72
2019-05-15T16:56:40.240Z,5.90
2019-05-15T16:59:11.563Z,7.15
2019-05-15T17:01:42.706Z,5.50
2019-05-15T17:04:13.558Z,6.12
2019-05-15T17:06:44.271Z,7.97
2019-05-15T17:09:21.345Z,3.22
2019-05-15T17:11:49.194Z,3.92
2019-05-15T17:14:20.141Z,6.75
2019-05-15T17:16:50.919Z,5.15
2019-05-15T17:19:24.634Z,5.15
2019-05-15T17:21:58.369Z,5.17
2019-05-15T17:24:28.709Z,4.87
2019-05-15T17:26:59.822Z,8.15
2019-05-15T17:29:30.761Z,10.30
2019-05-15T17:32:01.743Z,13.88
2019-05-15T17:34:32.795Z,9.70
2019-05-15T17:37:03.783Z,15.43
2019-05-15T17:39:37.923Z,12.95
2019-05-15T17:42:07.064Z,17.98
2019-05-15T17:44:38.333Z,11.88
2019-05-15T17:47:09.703Z,12.40
2019-05-15T17:49:40.838Z,8.15
2019-05-15T17:52:11.655Z,6.90
2019-05-15T17:54:44.975Z,12.20
2019-05-15T17:57:15.229Z,7.80
2019-05-15T17:59:48.499Z,6.17
2019-05-15T18:02:19.142Z,7.85
2019-05-15T18:04:49.998Z,9.48
2019-05-15T18:07:20.653Z,7.90
2019-05-15T18:09:54.417Z,5.78
2019-05-15T18:12:24.457Z,7.58
2019-05-15T18:14:55.417Z,7.05
2019-05-15T18:17:26.247Z,8.40
2019-05-15T18:19:58.096Z,5.45
2019-05-15T18:22:29.149Z,8.78
2019-05-15T18:24:59.686Z,6.55
2019-05-15T18:27:30.534Z,27.70
2019-05-15T18:30:01.193Z,16.35
2019-05-15T18:32:31.903Z,11.83
2019-05-15T18:35:02.646Z,10.10
2019-05-15T18:37:33.822Z,54.30
2019-05-15T18:40:06.196Z,252.30
2019-05-15T18:42:39.159Z,146.10
2019-05-15T18:45:10.482Z,97.53
2019-05-15T18:47:41.242Z,77.95
2019-05-15T18:50:13.386Z,56.85
2019-05-15T18:52:44.559Z,49.27
2019-05-15T18:55:15.481Z,34.98
2019-05-15T18:57:48.481Z,37.60
2019-05-15T19:00:19.097Z,33.00
2019-05-15T19:02:49.928Z,20.20
2019-05-15T19:05:20.688Z,17.05
2019-05-15T19:07:51.513Z,22.17
2019-05-15T19:10:22.619Z,22.65
2019-05-15T19:12:53.372Z,19.67
2019-05-15T19:15:24.511Z,17.77
2019-05-15T19:17:55.544Z,22.13
2019-05-15T19:20:28.046Z,19.23
2019-05-15T19:22:59.177Z,17.87
2019-05-15T19:25:30.140Z,19.30
2019-05-15T19:28:00.939Z,19.55
2019-05-15T19:30:31.767Z,16.42
2019-05-15T19:33:02.888Z,18.85
2019-05-15T19:35:33.778Z,15.28
2019-05-15T19:38:04.694Z,17.30
2019-05-15T19:40:35.691Z,15.48
2019-05-15T19:43:09.079Z,16.27
2019-05-15T19:45:39.284Z,11.15
2019-05-15T19:48:10.308Z,13.45
2019-05-15T19:50:41.219Z,15.32
2019-05-15T19:53:12.253Z,13.38
2019-05-15T19:55:43.471Z,12.45
2019-05-15T19:58:14.473Z,13.70
2019-05-15T20:00:45.377Z,10.63
2019-05-15T20:03:17.848Z,12.58
2019-05-15T20:05:48.684Z,10.53
2019-05-15T20:08:19.402Z,12.78
2019-05-15T20:10:50.288Z,13.08
2019-05-15T20:13:21.420Z,15.68
2019-05-15T20:15:52.617Z,11.43
2019-05-15T20:18:23.466Z,12.35
2019-05-15T20:20:54.442Z,13.43
2019-05-15T20:23:25.351Z,15.98
2019-05-15T20:25:57.693Z,13.58
2019-05-15T20:28:28.829Z,22.07
2019-05-15T20:30:59.978Z,19.55
2019-05-15T20:33:30.712Z,27.05
2019-05-15T20:36:01.905Z,18.95
2019-05-15T20:38:32.834Z,23.40
2019-05-15T20:41:03.868Z,25.80
2019-05-15T20:43:34.910Z,25.77
2019-05-15T20:46:08.297Z,25.70
2019-05-15T20:48:38.419Z,28.92
2019-05-15T20:51:09.280Z,16.67
2019-05-15T20:53:40.542Z,17.35
2019-05-15T20:56:11.495Z,16.07
2019-05-15T20:58:42.787Z,14.10
2019-05-15T21:01:13.710Z,14.87
2019-05-15T21:03:44.881Z,13.62
2019-05-15T21:06:17.914Z,14.15
2019-05-15T21:08:49.065Z,13.28
2019-05-15T21:11:20.029Z,15.72
2019-05-15T21:13:51.371Z,12.93
2019-05-15T21:16:22.359Z,12.58
2019-05-15T21:18:53.591Z,12.88
2019-05-15T21:21:24.467Z,11.63
2019-05-15T21:23:55.553Z,11.48
2019-05-15T21:26:27.123Z,13.83
2019-05-15T21:28:58.978Z,9.08
2019-05-15T21:31:29.917Z,10.75
2019-05-15T21:34:02.512Z,9.60
2019-05-15T21:36:34.674Z,9.38
2019-05-15T21:39:07.464Z,12.65
2019-05-15T21:41:38.970Z,7.40
2019-05-15T21:44:10.588Z,7.85
2019-05-15T21:46:42.734Z,8.93
2019-05-15T21:49:19.182Z,8.08
2019-05-15T21:51:52.077Z,6.17
2019-05-15T21:54:28.340Z,5.15
2019-05-15T21:57:18.900Z,7.08
2019-05-15T21:59:34.631Z,6.85
2019-05-15T22:02:05.957Z,7.55
2019-05-15T22:04:51.899Z,5.12
2019-05-15T22:07:12.134Z,6.58
2019-05-15T22:09:43.489Z,7.45
2019-05-15T22:12:18.254Z,4.28
2019-05-15T22:14:49.632Z,4.85
2019-05-15T22:17:20.690Z,5.62
2019-05-15T22:19:53.033Z,4.70
2019-05-15T22:22:24.658Z,4.42
2019-05-15T22:24:55.737Z,4.97
2019-05-15T22:27:29.003Z,4.00
2019-05-15T22:29:59.632Z,3.95
2019-05-15T22:32:30.411Z,4.58
2019-05-15T22:35:09.286Z,4.00
2019-05-15T22:37:34.066Z,5.35
2019-05-15T22:40:04.637Z,3.62
2019-05-15T22:42:35.093Z,5.37
2019-05-15T22:45:08.987Z,4.62
2019-05-15T22:47:39.172Z,4.90
2019-05-15T22:50:10.174Z,5.55
2019-05-15T22:52:41.218Z,5.28
2019-05-15T22:55:12.010Z,4.10
2019-05-15T22:57:42.800Z,3.60
2019-05-15T23:00:13.865Z,4.17
2019-05-15T23:02:45.071Z,3.85
2019-05-15T23:05:27.377Z,4.35
2019-05-15T23:07:51.032Z,4.17
2019-05-15T23:10:24.578Z,3.35
2019-05-15T23:12:55.325Z,3.58
2019-05-15T23:15:28.117Z,3.22
2019-05-15T23:17:58.829Z,3.17
2019-05-15T23:20:29.672Z,4.17
2019-05-15T23:23:00.465Z,4.50
2019-05-15T23:25:31.387Z,5.80
2019-05-15T23:28:02.667Z,4.30
2019-05-15T23:30:33.526Z,3.50
2019-05-15T23:33:04.733Z,3.10
2019-05-15T23:35:38.223Z,3.90
2019-05-15T23:38:08.427Z,4.50
2019-05-15T23:40:39.427Z,5.95
2019-05-15T23:43:10.614Z,3.30
2019-05-15T23:45:41.507Z,4.03
2019-05-15T23:48:12.391Z,3.05
2019-05-15T23:50:43.099Z,4.35
2019-05-15T23:53:16.547Z,2.67
2019-05-15T23:55:46.699Z,3.22
2019-05-15T23:58:18.839Z,4.17
